createdAt,value
2018-11-03T04:01:08.528Z,9.20
2018-11-03T04:02:08.893Z,8.90
2018-11-03T04:03:09.008Z,11.10
2018-11-03T04:04:09.053Z,8.70
2018-11-03T04:05:07.526Z,8.10
2018-11-03T04:06:07.326Z,8.40
2018-11-03T04:07:07.359Z,8.20
2018-11-03T04:08:07.512Z,8.30
2018-11-03T04:09:07.614Z,8.20
2018-11-03T04:10:07.850Z,7.70
2018-11-03T04:11:07.901Z,8.60
2018-11-03T04:12:08.117Z,9.40
2018-11-03T04:13:08.243Z,8.70
2018-11-03T04:14:08.494Z,9.20
2018-11-03T04:15:08.598Z,9.90
2018-11-03T04:16:08.750Z,11.00
2018-11-03T04:17:08.855Z,11.00
2018-11-03T04:18:09.116Z,11.40
2018-11-03T04:19:09.241Z,11.60
2018-11-03T04:20:09.384Z,11.60
2018-11-03T04:21:09.550Z,11.70
2018-11-03T04:22:09.775Z,12.10
2018-11-03T04:23:09.870Z,12.60
2018-11-03T04:24:10.023Z,12.30
2018-11-03T04:25:10.190Z,12.00
2018-11-03T04:26:10.388Z,12.10
2018-11-03T04:27:10.521Z,11.90
2018-11-03T04:28:10.721Z,10.60
2018-11-03T04:29:10.838Z,11.30
2018-11-03T04:30:11.014Z,10.30
2018-11-03T04:31:11.150Z,9.70
2018-11-03T04:32:11.387Z,9.90
2018-11-03T04:33:11.473Z,9.30
2018-11-03T04:34:11.745Z,9.00
2018-11-03T04:35:11.932Z,9.00
2018-11-03T04:36:12.042Z,7.80
2018-11-03T04:37:12.179Z,8.20
2018-11-03T04:38:12.367Z,7.70
2018-11-03T04:39:12.538Z,7.80
2018-11-03T04:40:12.677Z,7.40
2018-11-03T04:41:12.784Z,8.00
2018-11-03T04:42:13.002Z,8.00
2018-11-03T04:43:13.195Z,8.10
2018-11-03T04:44:13.284Z,7.70
2018-11-03T04:45:13.476Z,7.90
2018-11-03T04:46:13.578Z,9.00
2018-11-03T04:47:13.753Z,9.00
2018-11-03T04:48:13.953Z,9.20
2018-11-03T04:49:14.136Z,9.00
2018-11-03T04:50:14.323Z,8.40
2018-11-03T04:51:14.423Z,9.10
2018-11-03T04:52:14.598Z,8.70
2018-11-03T04:53:14.768Z,8.60
2018-11-03T04:54:14.840Z,8.60
2018-11-03T04:55:15.145Z,9.20
2018-11-03T04:56:15.217Z,9.80
2018-11-03T04:57:15.421Z,9.70
2018-11-03T04:58:15.565Z,8.40
2018-11-03T04:59:15.741Z,9.40
2018-11-03T05:00:16.084Z,9.40
2018-11-03T05:01:16.146Z,10.20
2018-11-03T05:02:16.295Z,10.80
2018-11-03T05:03:16.431Z,11.20
2018-11-03T05:04:16.615Z,12.30
2018-11-03T05:05:16.862Z,12.30
2018-11-03T05:06:16.999Z,12.60
2018-11-03T05:07:17.146Z,12.40
2018-11-03T05:08:17.272Z,12.40
2018-11-03T05:09:17.409Z,12.30
2018-11-03T05:10:17.579Z,12.40
2018-11-03T05:11:17.761Z,11.20
2018-11-03T05:12:17.875Z,12.00
2018-11-03T05:13:18.043Z,12.60
2018-11-03T05:14:18.259Z,13.40
2018-11-03T05:15:18.330Z,13.00
2018-11-03T05:16:18.595Z,12.50
2018-11-03T05:17:18.720Z,12.00
2018-11-03T05:18:18.892Z,12.60
2018-11-03T05:19:19.044Z,13.00
2018-11-03T05:20:19.117Z,12.00
2018-11-03T05:21:19.341Z,12.30
2018-11-03T05:22:19.519Z,12.20
2018-11-03T05:23:19.610Z,12.30
2018-11-03T05:24:19.770Z,12.30
2018-11-03T05:25:19.988Z,11.30
2018-11-03T05:26:20.123Z,11.20
2018-11-03T05:27:20.276Z,10.60
2018-11-03T05:28:20.480Z,10.50
2018-11-03T05:29:20.588Z,10.60
2018-11-03T05:30:20.775Z,10.00
2018-11-03T05:31:21.079Z,10.70
2018-11-03T05:32:21.132Z,10.30
2018-11-03T05:33:21.259Z,10.60
2018-11-03T05:34:21.476Z,10.60
2018-11-03T05:35:21.618Z,10.90
2018-11-03T05:36:21.756Z,10.90
2018-11-03T05:37:21.895Z,10.90
2018-11-03T05:38:22.008Z,11.00
2018-11-03T05:39:22.248Z,10.90
2018-11-03T05:40:22.383Z,10.80
2018-11-03T05:41:22.526Z,10.40
2018-11-03T05:42:22.760Z,10.40
2018-11-03T05:43:22.861Z,11.00
2018-11-03T05:44:23.047Z,10.60
2018-11-03T05:45:23.233Z,10.90
2018-11-03T05:46:23.389Z,11.70
2018-11-03T05:47:23.495Z,11.30
2018-11-03T05:48:23.615Z,11.50
2018-11-03T05:49:23.777Z,12.00
2018-11-03T05:50:24.003Z,11.80
2018-11-03T05:51:24.140Z,12.30
2018-11-03T05:52:24.388Z,12.20
2018-11-03T05:53:24.521Z,12.30
2018-11-03T05:54:24.746Z,13.00
2018-11-03T05:55:24.873Z,14.30
2018-11-03T05:56:25.076Z,15.60
2018-11-03T05:57:25.172Z,14.00
2018-11-03T05:58:25.322Z,13.40
2018-11-03T05:59:25.519Z,12.00
2018-11-03T06:00:25.659Z,11.80
2018-11-03T06:01:25.873Z,12.10
2018-11-03T06:02:26.016Z,11.40
2018-11-03T06:03:26.157Z,11.70
2018-11-03T06:04:26.344Z,11.50
2018-11-03T06:05:26.472Z,11.30
2018-11-03T06:06:26.654Z,10.90
2018-11-03T06:07:26.848Z,11.00
2018-11-03T06:08:26.969Z,10.70
2018-11-03T06:09:27.110Z,10.90
2018-11-03T06:10:27.268Z,11.30
2018-11-03T06:11:27.391Z,10.80
2018-11-03T06:12:27.556Z,11.40
2018-11-03T06:13:27.762Z,11.60
2018-11-03T06:14:27.915Z,11.10
2018-11-03T06:15:28.222Z,11.70
2018-11-03T06:16:28.240Z,13.20
2018-11-03T06:17:28.454Z,12.80
2018-11-03T06:18:28.659Z,12.50
2018-11-03T06:19:28.743Z,13.30
2018-11-03T06:20:28.987Z,13.90
2018-11-03T06:21:29.111Z,13.70
2018-11-03T06:22:29.258Z,13.30
2018-11-03T06:23:29.533Z,13.10
2018-11-03T06:24:29.713Z,13.10
2018-11-03T06:25:29.767Z,13.40
2018-11-03T06:26:30.006Z,13.60
2018-11-03T06:27:30.166Z,13.50
2018-11-03T06:28:30.301Z,13.20
2018-11-03T06:29:30.491Z,13.30
2018-11-03T06:30:30.657Z,12.90
2018-11-03T06:31:30.820Z,12.60
2018-11-03T06:32:30.995Z,12.80
2018-11-03T06:33:31.091Z,13.10
2018-11-03T06:34:31.304Z,13.40
2018-11-03T06:35:31.458Z,13.90
2018-11-03T06:36:31.670Z,14.60
2018-11-03T06:37:31.716Z,13.10
2018-11-03T06:38:31.954Z,13.70
2018-11-03T06:39:32.132Z,14.00
2018-11-03T06:40:32.269Z,14.30
2018-11-03T06:41:32.400Z,14.20
2018-11-03T06:42:32.629Z,14.80
2018-11-03T06:43:32.864Z,14.50
2018-11-03T06:44:33.022Z,16.40
2018-11-03T06:45:33.219Z,17.30
2018-11-03T06:46:33.521Z,16.50
2018-11-03T06:47:34.002Z,16.30
2018-11-03T06:48:33.823Z,15.40
2018-11-03T06:49:33.859Z,14.70
2018-11-03T06:50:33.945Z,14.90
2018-11-03T06:51:34.061Z,15.20
2018-11-03T06:52:34.283Z,15.00
2018-11-03T06:53:34.442Z,15.70
2018-11-03T06:54:34.732Z,16.60
2018-11-03T06:55:34.816Z,15.60
2018-11-03T06:56:34.921Z,15.20
2018-11-03T06:57:35.947Z,13.00
2018-11-03T06:58:35.302Z,12.20
2018-11-03T06:59:35.434Z,11.80
2018-11-03T07:00:35.524Z,12.10
2018-11-03T07:01:35.750Z,11.60
2018-11-03T07:02:35.866Z,11.70
2018-11-03T07:03:36.196Z,12.90
2018-11-03T07:04:36.164Z,13.30
2018-11-03T07:05:36.328Z,13.10
2018-11-03T07:06:36.629Z,14.30
2018-11-03T07:07:36.556Z,15.30
2018-11-03T07:08:37.293Z,14.90
2018-11-03T07:09:37.833Z,14.90
2018-11-03T07:10:37.039Z,15.00
2018-11-03T07:11:37.458Z,15.10
2018-11-03T07:12:37.631Z,15.60
2018-11-03T07:13:38.444Z,16.00
2018-11-03T07:14:37.832Z,15.40
2018-11-03T07:15:38.006Z,15.50
2018-11-03T07:16:38.071Z,16.10
2018-11-03T07:17:38.300Z,16.90
2018-11-03T07:18:38.479Z,17.20
2018-11-03T07:19:38.626Z,18.00
2018-11-03T07:20:38.832Z,16.70
2018-11-03T07:21:39.031Z,16.60
2018-11-03T07:22:39.096Z,17.30
2018-11-03T07:23:39.836Z,17.40
2018-11-03T07:24:39.379Z,17.40
2018-11-03T07:25:39.679Z,16.10
2018-11-03T07:26:39.857Z,17.10
2018-11-03T07:27:39.856Z,18.10
2018-11-03T07:28:40.209Z,18.50
2018-11-03T07:29:40.353Z,17.40
2018-11-03T07:30:40.423Z,16.90
2018-11-03T07:31:40.591Z,17.20
2018-11-03T07:32:40.818Z,19.60
2018-11-03T07:33:40.898Z,20.30
2018-11-03T07:34:41.058Z,20.50
2018-11-03T07:35:41.226Z,18.60
2018-11-03T07:36:41.328Z,17.40
2018-11-03T07:37:41.463Z,16.80
2018-11-03T07:38:42.761Z,16.50
2018-11-03T07:47:24.841Z,16.00
2018-11-03T07:48:26.290Z,16.90
2018-11-03T07:49:36.045Z,16.70
2018-11-03T07:50:25.376Z,16.50
2018-11-03T07:51:25.418Z,16.80
2018-11-03T08:01:44.045Z,20.80
2018-11-03T08:12:14.931Z,19.00
2018-11-03T08:13:45.290Z,18.40
2018-11-03T08:16:10.557Z,18.60
2018-11-03T08:16:59.034Z,18.10
2018-11-03T08:18:02.140Z,17.10
2018-11-03T08:19:04.454Z,17.40
2018-11-03T08:19:57.426Z,18.30
2018-11-03T08:20:58.485Z,18.30
2018-11-03T08:21:58.113Z,18.50
2018-11-03T08:24:11.705Z,17.60
2018-11-03T08:25:08.243Z,17.40
2018-11-03T08:25:58.643Z,17.60
2018-11-03T08:26:58.450Z,16.90
2018-11-03T08:27:58.904Z,16.60
2018-11-03T08:28:59.151Z,16.50
2018-11-03T08:29:59.048Z,17.10
2018-11-03T08:30:59.007Z,16.00
2018-11-03T08:31:58.983Z,16.10
2018-11-03T08:32:59.697Z,16.00
2018-11-03T08:34:00.609Z,14.90
2018-11-03T08:35:00.025Z,15.20
2018-11-03T08:35:59.967Z,14.80
2018-11-03T08:37:00.449Z,15.20
2018-11-03T08:38:00.540Z,14.10
2018-11-03T08:39:01.182Z,13.90
2018-11-03T08:40:00.232Z,14.50
2018-11-03T08:41:01.228Z,18.40
2018-11-03T08:42:01.027Z,19.30
2018-11-03T08:43:01.138Z,14.80
2018-11-03T08:44:01.184Z,13.90
2018-11-03T08:45:01.529Z,14.00
2018-11-03T08:46:01.737Z,13.90
2018-11-03T08:46:59.925Z,14.60
2018-11-03T08:47:59.776Z,14.20
2018-11-03T08:48:59.982Z,13.50
2018-11-03T08:50:00.088Z,13.90
2018-11-03T08:51:00.292Z,13.40
2018-11-03T08:52:00.397Z,13.80
2018-11-03T08:53:00.541Z,12.90
2018-11-03T08:54:00.679Z,13.20
2018-11-03T08:55:00.869Z,13.60
2018-11-03T08:56:00.998Z,14.00
2018-11-03T08:57:01.204Z,13.40
2018-11-03T08:58:01.360Z,13.00
2018-11-03T08:59:03.518Z,13.10
2018-11-03T09:00:01.742Z,13.30
2018-11-03T09:01:01.762Z,13.50
2018-11-03T09:02:01.917Z,13.50
2018-11-03T09:03:02.190Z,13.40
2018-11-03T09:04:02.261Z,13.40
2018-11-03T09:05:02.786Z,13.30
2018-11-03T09:06:02.683Z,12.80
2018-11-03T09:07:02.959Z,12.90
2018-11-03T09:08:03.116Z,12.00
2018-11-03T09:09:03.325Z,11.90
2018-11-03T09:10:03.442Z,10.60
2018-11-03T09:11:03.646Z,10.90
2018-11-03T09:12:03.766Z,11.20
2018-11-03T09:13:03.985Z,10.00
2018-11-03T09:14:04.306Z,10.30
2018-11-03T09:15:04.251Z,10.50
2018-11-03T09:16:04.434Z,9.70
2018-11-03T09:17:04.979Z,9.70
2018-11-03T09:18:05.005Z,9.60
2018-11-03T09:20:51.782Z,8.90
2018-11-03T09:22:07.419Z,8.70
2018-11-03T09:22:51.630Z,8.90
2018-11-03T09:23:52.531Z,9.20
2018-11-03T09:25:00.196Z,8.80
2018-11-03T09:26:58.031Z,9.10
2018-11-03T09:30:13.754Z,8.90
2018-11-03T09:31:16.235Z,8.50
2018-11-03T09:32:15.966Z,9.40
2018-11-03T09:33:15.283Z,9.40
2018-11-03T09:34:15.616Z,9.10
2018-11-03T09:39:00.575Z,8.60
2018-11-03T09:41:00.302Z,8.40
2018-11-03T09:42:00.439Z,8.90
2018-11-03T09:42:58.466Z,8.20
2018-11-03T09:43:58.870Z,8.70
2018-11-03T09:44:58.937Z,8.50
2018-11-03T09:45:58.934Z,8.20
2018-11-03T09:46:59.111Z,8.20
2018-11-03T09:47:59.305Z,8.30
2018-11-03T09:48:59.912Z,8.40
2018-11-03T10:24:53.924Z,6.10
2018-11-03T10:27:33.379Z,7.10
2018-11-03T10:30:42.643Z,6.50
2018-11-03T10:31:36.438Z,6.70
2018-11-03T10:32:35.051Z,7.10
2018-11-03T11:30:37.165Z,6.30
2018-11-03T11:31:42.993Z,6.30
2018-11-03T11:36:31.991Z,6.70
2018-11-03T11:38:40.830Z,6.30
2018-11-03T11:39:30.404Z,6.60
2018-11-03T11:41:50.556Z,6.40
2018-11-03T11:42:32.344Z,6.50
2018-11-03T11:43:45.873Z,6.40
2018-11-03T11:44:33.665Z,6.50
2018-11-03T11:45:36.062Z,6.20
2018-11-03T11:46:29.521Z,6.80
2018-11-03T11:47:29.899Z,6.30
2018-11-03T11:48:29.927Z,6.60
2018-11-03T11:49:30.042Z,6.60
2018-11-03T11:50:30.299Z,6.80
2018-11-03T11:54:21.047Z,5.80
2018-11-03T11:55:21.880Z,5.60
2018-11-03T11:56:18.328Z,5.70
2018-11-03T11:57:18.513Z,5.80
2018-11-03T11:58:18.751Z,5.90
2018-11-03T11:59:18.893Z,6.50
2018-11-03T12:00:19.708Z,6.00
2018-11-03T12:01:21.672Z,6.20
2018-11-03T12:02:19.684Z,6.10
2018-11-03T12:03:19.826Z,6.10
2018-11-03T12:04:20.087Z,6.60
2018-11-03T12:05:20.124Z,5.90
2018-11-03T13:08:02.673Z,6.80
2018-11-03T13:30:54.225Z,6.60
2018-11-03T13:59:20.808Z,7.70
2018-11-03T14:06:10.430Z,7.90
2018-11-03T14:06:53.663Z,7.60
2018-11-03T14:07:54.049Z,7.40
2018-11-03T14:08:52.545Z,7.50
2018-11-03T14:09:53.284Z,7.50
2018-11-03T14:10:53.450Z,8.50
2018-11-03T14:11:55.597Z,9.00
2018-11-03T14:12:54.154Z,8.50
2018-11-03T14:13:53.487Z,8.90
2018-11-03T14:14:54.015Z,9.00
2018-11-03T14:15:54.611Z,9.20
2018-11-03T14:17:03.167Z,8.90
2018-11-03T14:17:53.560Z,8.70
2018-11-03T14:18:54.671Z,9.20
2018-11-03T14:19:54.189Z,9.30
2018-11-03T14:21:00.932Z,8.70
2018-11-03T14:21:55.207Z,9.50
2018-11-03T14:23:00.142Z,9.60
2018-11-03T14:24:05.975Z,10.00
2018-11-03T14:25:18.008Z,9.80
2018-11-03T14:25:58.037Z,10.20
2018-11-03T14:27:02.963Z,10.80
2018-11-03T14:28:00.377Z,10.70
2018-11-03T14:29:08.009Z,10.80
2018-11-03T14:30:09.790Z,10.80
2018-11-03T14:30:56.089Z,10.60
2018-11-03T14:31:56.104Z,11.00
2018-11-03T14:32:56.201Z,10.70
2018-11-03T14:33:57.294Z,10.10
2018-11-03T14:34:56.746Z,9.90
2018-11-03T14:35:55.198Z,10.20
2018-11-03T14:36:54.798Z,10.00
2018-11-03T14:37:54.867Z,10.70
2018-11-03T14:39:09.771Z,10.30
2018-11-03T14:39:59.611Z,10.00
2018-11-03T14:41:01.704Z,9.60
2018-11-03T14:42:06.426Z,10.00
2018-11-03T14:43:00.461Z,10.10
2018-11-03T14:43:59.299Z,9.80
2018-11-03T14:44:58.851Z,9.70
2018-11-03T14:45:57.751Z,9.70
2018-11-03T14:46:56.899Z,9.90
2018-11-03T14:47:56.695Z,10.10
2018-11-03T14:48:56.942Z,9.80
2018-11-03T14:49:57.034Z,10.50
2018-11-03T14:50:57.475Z,10.10
2018-11-03T14:51:57.347Z,10.00
2018-11-03T14:52:57.760Z,10.20
2018-11-03T14:53:58.044Z,10.50
2018-11-03T14:54:58.048Z,10.40
2018-11-03T14:56:11.773Z,10.90
2018-11-03T14:57:33.059Z,11.10
2018-11-03T15:29:12.752Z,13.90
2018-11-03T15:31:17.014Z,12.80
2018-11-03T15:39:28.689Z,12.60
2018-11-03T15:45:02.223Z,15.80
2018-11-03T15:46:36.661Z,20.00
2018-11-03T15:47:03.456Z,15.30
2018-11-03T15:50:40.394Z,18.10
2018-11-03T15:51:43.481Z,16.30
2018-11-03T15:53:32.699Z,16.40
2018-11-03T15:54:56.021Z,15.90
2018-11-03T15:56:16.476Z,16.60
2018-11-03T15:56:43.344Z,21.90
2018-11-03T15:58:25.902Z,20.90
2018-11-03T15:58:41.432Z,18.50
2018-11-03T16:09:02.706Z,33.20
2018-11-03T16:19:23.182Z,18.60
2018-11-03T16:20:24.414Z,24.70
2018-11-03T16:21:24.427Z,23.60
2018-11-03T16:32:55.639Z,29.50
2018-11-03T16:34:04.665Z,29.70
2018-11-03T16:34:56.125Z,30.10
2018-11-03T16:35:56.348Z,27.70
2018-11-03T16:38:55.112Z,22.70
2018-11-03T16:39:55.655Z,22.70
2018-11-03T16:40:55.248Z,23.10
2018-11-03T16:41:55.870Z,24.10
2018-11-03T16:42:55.692Z,24.00
2018-11-03T16:43:56.480Z,29.00
2018-11-03T16:50:48.728Z,26.50
2018-11-03T16:51:50.296Z,24.90
2018-11-03T16:58:19.994Z,25.50
2018-11-03T16:59:22.408Z,23.70
2018-11-03T17:00:21.390Z,25.60
2018-11-03T17:01:20.282Z,28.50
2018-11-03T17:02:18.554Z,26.60
2018-11-03T17:03:17.595Z,26.40
2018-11-03T17:04:17.797Z,27.30
2018-11-03T17:05:17.880Z,23.90
2018-11-03T17:06:18.096Z,22.10
2018-11-03T17:07:18.246Z,22.80
2018-11-03T17:08:18.384Z,22.10
2018-11-03T17:09:18.544Z,21.00
2018-11-03T17:10:18.805Z,21.10
2018-11-03T17:11:18.887Z,19.60
2018-11-03T17:12:19.384Z,19.80
2018-11-03T17:13:19.975Z,19.60
2018-11-03T17:14:19.444Z,19.60
2018-11-03T17:15:19.566Z,19.50
2018-11-03T17:16:19.716Z,21.50
2018-11-03T17:17:19.976Z,22.50
2018-11-03T17:18:20.008Z,21.50
2018-11-03T17:19:20.273Z,21.40
2018-11-03T17:20:20.427Z,21.40
2018-11-03T17:21:20.558Z,24.60
2018-11-03T17:22:20.792Z,23.90
2018-11-03T17:23:20.974Z,25.80
2018-11-03T17:24:21.010Z,36.10
2018-11-03T17:25:21.477Z,25.60
2018-11-03T17:26:21.502Z,53.80
2018-11-03T17:27:21.645Z,35.00
2018-11-03T17:28:21.739Z,22.60
2018-11-03T17:29:21.938Z,23.90
2018-11-03T17:30:22.066Z,26.80
2018-11-03T17:31:22.179Z,24.30
2018-11-03T17:32:22.413Z,21.30
2018-11-03T17:33:22.543Z,22.10
2018-11-03T17:34:22.739Z,22.80
2018-11-03T17:35:22.946Z,22.40
2018-11-03T17:37:58.491Z,19.40
2018-11-03T17:38:58.870Z,21.00
2018-11-03T17:39:58.986Z,20.40
2018-11-03T17:41:00.517Z,20.10
2018-11-03T17:41:59.359Z,21.30
2018-11-03T17:43:00.031Z,19.70
2018-11-03T17:44:00.169Z,20.20
2018-11-03T17:45:00.416Z,20.30
2018-11-03T17:46:00.544Z,19.50
2018-11-03T17:47:03.462Z,19.20
2018-11-03T17:49:00.513Z,20.10
2018-11-03T17:50:01.294Z,20.20
2018-11-03T17:51:01.695Z,19.50
2018-11-03T17:52:01.589Z,18.80
2018-11-03T17:52:59.205Z,19.50
2018-11-03T17:53:59.331Z,20.00
2018-11-03T17:54:59.692Z,19.70
2018-11-03T17:58:21.072Z,41.30
2018-11-03T17:59:22.865Z,39.90
2018-11-03T18:00:21.173Z,27.40
2018-11-03T18:01:21.393Z,28.70
2018-11-03T18:02:21.283Z,25.00
2018-11-03T18:03:21.624Z,24.20
2018-11-03T18:04:21.671Z,21.40
2018-11-03T18:05:21.795Z,20.70
2018-11-03T18:06:22.120Z,19.20
2018-11-03T18:07:22.718Z,18.70
2018-11-03T18:10:10.889Z,19.60
2018-11-03T18:11:11.130Z,20.10
2018-11-03T18:14:12.483Z,19.00
2018-11-03T18:15:11.878Z,19.30
2018-11-03T18:16:12.392Z,19.40
2018-11-03T18:17:12.369Z,18.40
2018-11-03T18:18:12.172Z,18.30
2018-11-03T18:19:12.657Z,19.10
2018-11-03T18:20:12.531Z,19.50
2018-11-03T18:21:13.231Z,20.60
2018-11-03T18:22:13.446Z,21.80
2018-11-03T18:23:11.089Z,21.50
2018-11-03T18:24:11.116Z,21.30
2018-11-03T18:25:12.809Z,19.40
2018-11-03T18:26:11.510Z,19.60
2018-11-03T18:27:11.631Z,18.60
2018-11-03T18:28:12.030Z,19.50
2018-11-03T18:29:11.993Z,19.70
2018-11-03T18:30:12.176Z,19.90
2018-11-03T18:31:12.388Z,21.30
2018-11-03T18:32:12.462Z,21.50
2018-11-03T18:33:12.673Z,21.20
2018-11-03T18:34:12.967Z,22.30
2018-11-03T18:35:13.906Z,22.00
2018-11-03T18:36:13.151Z,23.10
2018-11-03T18:37:13.534Z,20.30
2018-11-03T18:38:13.497Z,19.80
2018-11-03T18:39:13.810Z,20.40
2018-11-03T18:40:14.005Z,19.90
2018-11-03T18:41:13.969Z,19.30
2018-11-03T18:42:14.086Z,20.60
2018-11-03T18:43:14.279Z,20.40
2018-11-03T18:44:14.414Z,20.50
2018-11-03T18:45:14.662Z,21.50
2018-11-03T18:46:14.876Z,20.60
2018-11-03T18:47:14.969Z,23.60
2018-11-03T18:48:15.093Z,28.00
2018-11-03T18:49:15.375Z,27.90
2018-11-03T18:50:15.551Z,27.20
2018-11-03T18:51:15.682Z,25.10
2018-11-03T18:52:15.867Z,23.30
2018-11-03T18:53:16.069Z,23.20
2018-11-03T18:54:16.150Z,22.40
2018-11-03T18:55:16.270Z,22.60
2018-11-03T18:56:16.485Z,23.00
2018-11-03T18:57:16.609Z,22.70
2018-11-03T18:58:16.797Z,24.10
2018-11-03T18:59:17.028Z,24.30
2018-11-03T19:00:17.113Z,26.10
2018-11-03T19:01:17.250Z,24.10
2018-11-03T19:02:17.526Z,25.60
2018-11-03T19:03:17.690Z,29.10
2018-11-03T19:04:17.799Z,34.80
2018-11-03T19:05:18.021Z,29.40
2018-11-03T19:06:18.150Z,29.30
2018-11-03T19:07:18.324Z,30.50
2018-11-03T19:08:18.543Z,27.00
2018-11-03T19:09:18.787Z,28.40
2018-11-03T19:10:18.952Z,27.60
2018-11-03T19:11:19.057Z,28.20
2018-11-03T19:12:19.210Z,27.40
2018-11-03T19:13:19.530Z,28.80
2018-11-03T19:14:19.539Z,27.90
2018-11-03T19:15:19.670Z,26.80
2018-11-03T19:16:19.803Z,28.50
2018-11-03T19:17:20.113Z,25.60
2018-11-03T19:18:20.188Z,25.20
2018-11-03T19:19:20.300Z,23.80
2018-11-03T19:20:20.739Z,23.00
2018-11-03T19:21:20.885Z,22.00
2018-11-03T19:22:21.431Z,23.20
2018-11-03T19:23:21.172Z,21.60
2018-11-03T19:24:21.606Z,22.00
2018-11-03T19:25:21.643Z,21.20
2018-11-03T19:26:21.730Z,22.10
2018-11-03T19:27:21.979Z,22.10
2018-11-03T19:28:22.186Z,22.00
2018-11-03T19:29:22.224Z,24.40
2018-11-03T19:30:22.452Z,24.40
2018-11-03T19:31:22.597Z,24.30
2018-11-03T19:32:22.786Z,25.40
2018-11-03T19:33:22.869Z,28.40
2018-11-03T19:34:23.077Z,28.70
2018-11-03T19:35:23.169Z,33.20
2018-11-03T19:36:23.381Z,33.10
2018-11-03T19:37:23.648Z,35.50
2018-11-03T19:38:23.769Z,33.90
2018-11-03T19:39:23.866Z,33.00
2018-11-03T19:40:23.958Z,33.90
2018-11-03T19:41:24.373Z,35.80
2018-11-03T19:42:24.418Z,33.40
2018-11-03T19:43:24.574Z,52.10
2018-11-03T19:44:24.830Z,78.90
2018-11-03T19:45:25.011Z,40.90
2018-11-03T19:46:25.281Z,30.90
2018-11-03T19:47:25.360Z,27.40
2018-11-03T19:48:25.530Z,26.40
2018-11-03T19:49:25.673Z,23.80
2018-11-03T19:50:25.859Z,23.20
2018-11-03T19:51:26.209Z,26.50
2018-11-03T19:52:26.179Z,23.90
2018-11-03T19:53:26.271Z,22.40
2018-11-03T19:54:26.510Z,20.30
2018-11-03T19:55:26.658Z,21.30
2018-11-03T19:56:26.893Z,21.60
2018-11-03T19:57:27.030Z,18.60
2018-11-03T19:58:27.199Z,19.10
2018-11-03T19:59:27.346Z,19.60
2018-11-03T20:00:27.648Z,18.50
2018-11-03T20:01:27.730Z,20.30
2018-11-03T20:02:27.902Z,20.00
2018-11-03T20:03:28.020Z,19.30
2018-11-03T20:04:28.141Z,18.80
2018-11-03T20:05:28.409Z,19.20
2018-11-03T20:06:28.493Z,18.90
2018-11-03T20:07:28.656Z,18.20
2018-11-03T20:08:28.809Z,18.10
2018-11-03T20:09:29.085Z,18.20
2018-11-03T20:10:29.157Z,19.30
2018-11-03T20:11:29.321Z,18.60
2018-11-03T20:12:29.479Z,17.80
2018-11-03T20:13:29.654Z,18.10
2018-11-03T20:14:29.938Z,17.60
2018-11-03T20:15:30.135Z,18.20
2018-11-03T20:16:30.220Z,19.70
2018-11-03T20:17:30.384Z,19.00
2018-11-03T20:18:30.710Z,18.80
2018-11-03T20:19:30.861Z,18.80
2018-11-03T20:20:30.978Z,18.80
2018-11-03T20:21:31.128Z,19.50
2018-11-03T20:22:31.242Z,20.10
2018-11-03T20:23:31.380Z,21.00
2018-11-03T20:24:31.677Z,19.40
2018-11-03T20:25:31.719Z,20.40
2018-11-03T20:26:31.980Z,20.20
2018-11-03T20:27:32.133Z,20.30
2018-11-03T20:28:32.340Z,20.50
2018-11-03T20:29:32.462Z,20.90
2018-11-03T20:30:32.665Z,21.30
2018-11-03T20:31:32.809Z,20.90
2018-11-03T20:32:33.098Z,20.60
2018-11-03T20:33:33.317Z,22.70
2018-11-03T20:34:33.493Z,23.30
2018-11-03T20:35:33.659Z,21.70
2018-11-03T20:36:33.920Z,20.80
2018-11-03T20:37:34.024Z,21.60
2018-11-03T20:38:34.147Z,21.30
2018-11-03T20:39:34.426Z,22.10
2018-11-03T20:40:34.551Z,19.80
2018-11-03T20:41:34.746Z,18.90
2018-11-03T20:42:34.852Z,17.60
2018-11-03T20:44:35.277Z,18.40
2018-11-03T20:45:35.498Z,17.90
2018-11-03T20:46:35.812Z,17.40
2018-11-03T20:47:35.715Z,18.30
2018-11-03T20:48:35.935Z,18.20
2018-11-03T20:49:35.982Z,18.40
2018-11-03T20:50:36.150Z,17.60
2018-11-03T20:51:36.358Z,17.60
2018-11-03T20:52:36.473Z,17.90
2018-11-03T20:53:36.748Z,17.90
2018-11-03T20:54:36.906Z,17.20
2018-11-03T20:55:36.988Z,18.00
2018-11-03T20:56:37.259Z,17.60
2018-11-03T20:57:37.502Z,17.40
2018-11-03T20:58:37.555Z,17.30
2018-11-03T20:59:37.744Z,18.30
2018-11-03T21:00:37.979Z,18.80
2018-11-03T21:01:38.104Z,18.90
2018-11-03T21:02:38.218Z,18.30
2018-11-03T21:03:38.378Z,17.70
2018-11-03T21:04:39.448Z,18.00
2018-11-03T21:05:38.831Z,19.10
2018-11-03T21:06:38.956Z,19.50
2018-11-03T21:07:39.132Z,21.90
2018-11-03T21:08:39.318Z,22.60
2018-11-03T21:09:39.468Z,27.10
2018-11-03T21:10:39.674Z,27.40
2018-11-03T21:11:39.837Z,26.90
2018-11-03T21:12:40.071Z,26.80
2018-11-03T21:13:40.221Z,25.30
2018-11-03T21:14:40.375Z,22.90
2018-11-03T21:15:40.476Z,20.90
2018-11-03T21:16:40.798Z,19.90
2018-11-03T21:17:40.825Z,20.20
2018-11-03T21:18:41.042Z,19.70
2018-11-03T21:19:41.181Z,19.00
2018-11-03T21:22:27.702Z,19.40
2018-11-03T21:23:28.224Z,18.10
2018-11-03T21:24:27.905Z,18.10
2018-11-03T21:25:28.265Z,18.40
2018-11-03T21:26:28.641Z,17.80
2018-11-03T21:27:28.399Z,18.30
2018-11-03T21:28:28.773Z,18.90
2018-11-03T21:29:28.829Z,17.80
2018-11-03T21:30:26.849Z,19.20
2018-11-03T21:31:26.998Z,20.80
2018-11-03T21:32:27.293Z,19.60
2018-11-03T21:33:27.364Z,19.40
2018-11-03T21:34:29.120Z,19.10
2018-11-03T21:35:28.070Z,19.70
2018-11-03T21:36:28.719Z,19.40
2018-11-03T21:37:28.105Z,19.90
2018-11-03T21:38:28.385Z,21.10
2018-11-03T21:39:28.316Z,20.20
2018-11-03T21:40:28.525Z,20.00
2018-11-03T21:41:28.721Z,19.10
2018-11-03T21:42:28.857Z,19.60
2018-11-03T21:43:28.963Z,19.60
2018-11-03T21:44:29.137Z,19.20
2018-11-03T21:45:29.276Z,20.60
2018-11-03T21:46:29.651Z,20.40
2018-11-03T21:47:29.699Z,21.10
2018-11-03T21:48:30.099Z,19.40
2018-11-03T21:49:30.039Z,23.00
2018-11-03T21:50:30.285Z,21.80
2018-11-03T21:51:30.412Z,22.50
2018-11-03T21:52:30.708Z,21.70
2018-11-03T21:53:30.723Z,21.70
2018-11-03T21:54:30.886Z,22.50
2018-11-03T21:55:31.532Z,22.20
2018-11-03T21:56:31.272Z,21.70
2018-11-03T21:57:31.354Z,22.50
2018-11-03T21:58:31.585Z,22.20
2018-11-03T21:59:31.813Z,21.40
2018-11-03T22:00:32.636Z,20.90
2018-11-03T22:01:32.261Z,21.50
2018-11-03T22:02:32.355Z,20.30
2018-11-03T22:03:32.547Z,21.50
2018-11-03T22:04:32.739Z,22.00
2018-11-03T22:05:32.815Z,22.00
2018-11-03T22:06:32.979Z,22.50
2018-11-03T22:07:33.216Z,21.90
2018-11-03T22:08:33.284Z,21.00
2018-11-03T22:09:34.154Z,21.60
2018-11-03T22:10:33.759Z,21.80
2018-11-03T22:11:33.816Z,20.50
2018-11-03T22:12:34.019Z,19.90
2018-11-03T22:13:34.187Z,21.40
2018-11-03T22:14:34.271Z,23.40
2018-11-03T22:15:34.566Z,24.20
2018-11-03T22:16:34.627Z,21.80
2018-11-03T22:17:34.771Z,21.40
2018-11-03T22:18:34.998Z,21.40
2018-11-03T22:19:35.151Z,21.10
2018-11-03T22:20:35.375Z,21.70
2018-11-03T22:21:35.548Z,20.90
2018-11-03T22:22:35.623Z,20.20
2018-11-03T22:23:35.829Z,21.80
2018-11-03T22:24:36.040Z,21.30
2018-11-03T22:25:36.200Z,20.60
2018-11-03T22:26:36.340Z,21.00
2018-11-03T22:27:36.589Z,19.90
2018-11-03T22:28:36.643Z,20.70
2018-11-03T22:29:36.953Z,20.00
2018-11-03T22:30:37.125Z,19.90
2018-11-03T22:31:37.335Z,20.10
2018-11-03T22:32:37.435Z,19.60
2018-11-03T22:33:37.577Z,20.40
2018-11-03T22:34:37.786Z,19.40
2018-11-03T22:35:37.948Z,19.40
2018-11-03T22:36:38.132Z,19.30
2018-11-03T22:37:38.324Z,19.50
2018-11-03T22:38:38.490Z,19.30
2018-11-03T22:39:38.620Z,20.40
2018-11-03T22:40:38.779Z,22.00
2018-11-03T22:41:38.907Z,20.70
2018-11-03T22:42:39.052Z,20.70
2018-11-03T22:43:39.343Z,20.60
2018-11-03T22:44:39.510Z,21.40
2018-11-03T22:45:39.753Z,21.10
2018-11-03T22:46:39.828Z,20.20
2018-11-03T22:47:40.089Z,22.10
2018-11-03T22:48:40.199Z,23.40
2018-11-03T22:49:40.539Z,24.50
